createdAt,value
2019-03-13T00:00:38.696Z,8.40
2019-03-13T00:03:09.973Z,8.50
2019-03-13T00:05:40.227Z,8.50
2019-03-13T00:08:10.502Z,8.50
2019-03-13T00:10:40.689Z,8.50
2019-03-13T00:13:11.213Z,8.60
2019-03-13T00:15:41.459Z,8.60
2019-03-13T00:18:11.748Z,8.60
2019-03-13T00:20:41.925Z,8.60
2019-03-13T00:23:12.218Z,8.60
2019-03-13T00:25:42.483Z,8.60
2019-03-13T00:28:12.741Z,8.60
2019-03-13T00:30:43.054Z,8.60
2019-03-13T00:33:13.549Z,8.60
2019-03-13T00:35:43.809Z,8.60
2019-03-13T00:38:14.075Z,8.70
2019-03-13T00:40:44.307Z,8.70
2019-03-13T00:43:14.633Z,8.80
2019-03-13T00:45:45.865Z,8.80
2019-03-13T00:48:16.158Z,8.80
2019-03-13T00:50:46.420Z,8.80
2019-03-13T00:53:16.707Z,8.70
2019-03-13T00:55:46.869Z,8.50
2019-03-13T00:58:18.854Z,8.30
2019-03-13T01:00:53.601Z,8.10
2019-03-13T01:23:36.016Z,7.60
2019-03-13T01:26:07.084Z,7.50
2019-03-13T01:28:37.443Z,7.40
2019-03-13T01:31:12.084Z,7.30
2019-03-13T01:33:43.332Z,7.30
2019-03-13T01:36:13.752Z,7.30
2019-03-13T01:38:44.027Z,7.20
2019-03-13T01:41:14.313Z,7.20
2019-03-13T01:43:44.668Z,7.20
2019-03-13T01:46:15.086Z,7.20
2019-03-13T01:48:45.540Z,7.10
2019-03-13T01:51:16.308Z,7.00
2019-03-13T01:53:46.500Z,7.00
2019-03-13T01:56:16.724Z,6.90
2019-03-13T01:58:47.007Z,6.90
2019-03-13T02:01:17.167Z,6.80
2019-03-13T02:03:47.448Z,6.70
2019-03-13T02:06:17.796Z,6.70
2019-03-13T02:08:47.976Z,6.60
2019-03-13T02:11:18.129Z,6.60
2019-03-13T02:13:48.308Z,6.50
2019-03-13T02:16:18.465Z,6.50
2019-03-13T02:18:48.694Z,6.50
2019-03-13T02:21:18.853Z,6.50
2019-03-13T02:23:49.127Z,6.40
2019-03-13T02:26:19.471Z,6.40
2019-03-13T02:28:49.741Z,6.40
2019-03-13T02:31:19.985Z,6.30
2019-03-13T02:33:50.635Z,6.30
2019-03-13T02:36:20.980Z,6.30
2019-03-13T02:38:51.147Z,6.30
2019-03-13T02:41:21.412Z,6.30
2019-03-13T02:43:51.581Z,6.30
2019-03-13T02:46:21.724Z,6.20
2019-03-13T02:48:51.901Z,6.20
2019-03-13T02:51:22.053Z,6.20
2019-03-13T02:53:52.295Z,6.10
2019-03-13T02:56:22.453Z,6.10
2019-03-13T02:58:52.639Z,6.10
2019-03-13T03:01:24.424Z,6.10
2019-03-13T03:03:57.568Z,6.10
2019-03-13T03:06:27.693Z,6.10
2019-03-13T03:08:58.067Z,6.00
2019-03-13T03:11:28.334Z,5.90
2019-03-13T03:13:58.700Z,5.90
2019-03-13T03:16:28.948Z,5.90
2019-03-13T03:18:59.425Z,5.80
2019-03-13T03:21:29.582Z,5.80
2019-03-13T03:23:59.864Z,5.80
2019-03-13T03:26:30.028Z,5.80
2019-03-13T03:29:00.215Z,5.80
2019-03-13T03:31:31.405Z,5.70
2019-03-13T03:34:02.393Z,5.70
2019-03-13T03:36:32.517Z,5.60
2019-03-13T03:39:05.021Z,5.60
2019-03-13T03:41:35.201Z,5.60
2019-03-13T03:44:05.379Z,5.50
2019-03-13T03:46:35.527Z,5.50
2019-03-13T03:49:05.693Z,5.50
2019-03-13T03:51:35.944Z,5.50
2019-03-13T03:54:06.292Z,5.40
2019-03-13T03:56:36.445Z,5.40
2019-03-13T03:59:06.704Z,5.40
2019-03-13T04:01:36.860Z,5.40
2019-03-13T04:04:07.031Z,5.40
2019-03-13T04:06:37.201Z,5.50
2019-03-13T04:09:07.546Z,5.50
2019-03-13T04:11:37.705Z,5.50
2019-03-13T04:14:07.878Z,5.50
2019-03-13T04:16:38.223Z,5.50
2019-03-13T04:19:08.488Z,5.50
2019-03-13T04:21:38.872Z,5.50
2019-03-13T04:24:09.021Z,5.50
2019-03-13T04:26:39.273Z,5.50
2019-03-13T04:29:09.449Z,5.50
2019-03-13T04:31:39.696Z,5.50
2019-03-13T04:34:09.869Z,5.50
2019-03-13T04:36:40.029Z,5.50
2019-03-13T04:39:10.308Z,5.50
2019-03-13T04:41:40.655Z,5.50
2019-03-13T04:44:10.951Z,5.50
2019-03-13T04:46:41.113Z,5.50
2019-03-13T04:49:11.383Z,5.50
2019-03-13T04:51:41.647Z,5.40
2019-03-13T04:54:11.964Z,5.40
2019-03-13T04:56:42.125Z,5.40
2019-03-13T04:59:12.399Z,5.40
2019-03-13T05:01:42.628Z,5.40
2019-03-13T05:04:12.911Z,5.40
2019-03-13T05:06:43.063Z,5.40
2019-03-13T05:09:13.348Z,5.40
2019-03-13T05:11:43.512Z,5.20
2019-03-13T05:14:13.791Z,5.30
2019-03-13T05:16:43.953Z,5.30
2019-03-13T05:19:14.131Z,5.20
2019-03-13T05:21:44.380Z,5.20
2019-03-13T05:24:14.561Z,5.20
2019-03-13T05:26:44.712Z,5.20
2019-03-13T05:29:15.104Z,5.10
2019-03-13T05:31:45.965Z,5.00
2019-03-13T05:34:16.341Z,5.00
2019-03-13T05:36:46.512Z,5.00
2019-03-13T05:39:16.667Z,5.00
2019-03-13T05:41:46.815Z,5.10
2019-03-13T05:44:17.154Z,5.00
2019-03-13T05:46:47.475Z,5.00
2019-03-13T05:49:17.651Z,5.00
2019-03-13T05:51:47.942Z,5.00
2019-03-13T05:54:18.323Z,5.00
2019-03-13T05:56:48.682Z,5.00
2019-03-13T05:59:18.968Z,4.90
2019-03-13T06:01:49.122Z,4.90
2019-03-13T06:04:19.299Z,4.90
2019-03-13T06:06:49.585Z,4.80
2019-03-13T06:09:19.727Z,4.90
2019-03-13T06:11:49.912Z,4.90
2019-03-13T06:14:20.331Z,4.90
2019-03-13T06:16:50.700Z,5.00
2019-03-13T06:19:20.908Z,5.00
2019-03-13T06:21:51.289Z,5.00
2019-03-13T06:24:21.544Z,5.10
2019-03-13T06:26:51.724Z,5.10
2019-03-13T06:29:21.975Z,5.10
2019-03-13T06:31:52.164Z,5.20
2019-03-13T06:34:23.626Z,5.20
2019-03-13T06:36:53.895Z,5.30
2019-03-13T06:39:24.548Z,5.30
2019-03-13T06:41:54.833Z,5.40
2019-03-13T06:44:25.058Z,5.50
2019-03-13T06:46:55.245Z,5.70
2019-03-13T06:49:25.561Z,6.00
2019-03-13T06:51:56.431Z,6.00
2019-03-13T06:54:27.583Z,6.10
2019-03-13T06:56:58.377Z,6.30
2019-03-13T06:59:30.267Z,6.30
2019-03-13T07:02:07.787Z,6.30
2019-03-13T07:04:56.047Z,6.30
2019-03-13T07:07:42.721Z,6.20
2019-03-13T07:10:17.952Z,6.00
2019-03-13T07:13:05.288Z,5.90
2019-03-13T07:15:39.804Z,6.00
2019-03-13T07:18:17.568Z,6.10
2019-03-13T07:21:04.288Z,6.20
2019-03-13T07:23:52.298Z,6.20
2019-03-13T07:26:24.315Z,6.30
2019-03-13T07:29:11.015Z,6.30
2019-03-13T07:31:48.436Z,6.30
2019-03-13T07:34:36.697Z,6.20
2019-03-13T07:37:22.189Z,6.10
2019-03-13T07:39:56.790Z,6.20
2019-03-13T07:42:28.600Z,6.20
2019-03-13T07:45:04.858Z,6.20
2019-03-13T07:47:36.692Z,6.10
2019-03-13T07:50:27.294Z,6.10
2019-03-13T07:53:02.200Z,6.20
2019-03-13T07:55:50.900Z,6.30
2019-03-13T07:58:28.730Z,6.40
2019-03-13T08:01:06.708Z,6.40
2019-03-13T08:03:57.404Z,6.30
2019-03-13T08:06:29.228Z,6.30
2019-03-13T08:09:17.452Z,6.50
2019-03-13T08:11:52.052Z,6.60
2019-03-13T08:14:29.539Z,6.40
2019-03-13T08:17:04.379Z,6.50
2019-03-13T08:19:38.868Z,6.60
2019-03-13T08:22:25.818Z,6.70
2019-03-13T08:25:00.520Z,6.70
2019-03-13T08:27:32.446Z,6.70
2019-03-13T08:30:16.415Z,6.60
2019-03-13T08:32:48.348Z,6.50
2019-03-13T08:35:36.273Z,6.40
2019-03-13T08:38:16.984Z,6.40
2019-03-13T08:40:48.847Z,6.40
2019-03-13T08:43:29.592Z,6.50
2019-03-13T08:46:07.516Z,6.50
2019-03-13T08:48:46.883Z,6.40
2019-03-13T08:51:24.495Z,6.40
2019-03-13T08:54:02.135Z,6.50
2019-03-13T08:56:50.148Z,6.50
2019-03-13T08:59:24.568Z,6.60
2019-03-13T09:02:02.292Z,6.70
2019-03-13T09:04:34.198Z,6.90
2019-03-13T09:07:12.276Z,7.00
2019-03-13T09:09:44.167Z,7.10
2019-03-13T09:12:27.837Z,7.00
2019-03-13T09:15:16.091Z,7.00
2019-03-13T09:18:00.295Z,6.80
2019-03-13T09:20:33.700Z,6.90
2019-03-13T09:23:05.622Z,6.90
2019-03-13T09:25:46.868Z,7.00
2019-03-13T09:28:33.456Z,7.00
2019-03-13T09:31:20.556Z,6.90
2019-03-13T09:34:07.260Z,7.00
2019-03-13T09:36:48.076Z,7.00
2019-03-13T09:39:22.606Z,7.10
2019-03-13T09:42:03.173Z,7.10
2019-03-13T09:44:40.998Z,7.20
2019-03-13T09:47:25.053Z,7.40
2019-03-13T09:49:56.877Z,7.40
2019-03-13T09:52:47.222Z,7.30
2019-03-13T09:55:19.332Z,7.40
2019-03-13T09:57:51.355Z,7.40
2019-03-13T10:00:39.105Z,7.60
2019-03-13T10:03:22.773Z,7.60
2019-03-13T10:05:57.400Z,7.70
2019-03-13T10:08:44.271Z,7.90
2019-03-13T10:11:19.099Z,7.90
2019-03-13T10:13:53.685Z,7.90
2019-03-13T10:16:25.488Z,7.90
2019-03-13T10:19:04.367Z,8.10
2019-03-13T10:21:42.397Z,8.00
2019-03-13T10:24:16.991Z,8.00
2019-03-13T10:26:51.955Z,8.00
2019-03-13T10:29:23.872Z,8.00
2019-03-13T10:32:13.856Z,8.00
2019-03-13T10:34:48.732Z,8.00
2019-03-13T10:37:32.852Z,7.80
2019-03-13T10:40:06.154Z,7.70
2019-03-13T10:42:50.343Z,7.70
2019-03-13T10:45:28.196Z,7.50
2019-03-13T10:48:00.003Z,7.50
2019-03-13T10:50:47.180Z,7.50
2019-03-13T10:53:28.056Z,7.60
2019-03-13T10:56:16.940Z,7.70
2019-03-13T10:58:57.450Z,7.70
2019-03-13T11:01:29.387Z,7.70
2019-03-13T11:04:10.188Z,7.80
2019-03-13T11:06:54.036Z,7.80
2019-03-13T11:09:24.929Z,7.80
2019-03-13T11:11:56.925Z,7.80
2019-03-13T11:14:34.726Z,7.80
2019-03-13T11:17:12.861Z,7.90
2019-03-13T11:19:44.759Z,8.00
2019-03-13T11:22:33.076Z,8.00
2019-03-13T11:25:05.241Z,8.10
2019-03-13T11:27:37.145Z,8.10
2019-03-13T11:30:21.016Z,8.30
2019-03-13T11:32:58.701Z,8.40
2019-03-13T11:35:33.608Z,8.40
2019-03-13T11:41:05.446Z,8.40
2019-03-13T11:43:42.948Z,8.40
2019-03-13T11:46:14.913Z,8.50
2019-03-13T11:48:52.397Z,8.60
2019-03-13T11:51:24.311Z,8.50
2019-03-13T11:53:56.312Z,8.30
2019-03-13T11:56:34.820Z,8.20
2019-03-13T11:59:23.333Z,8.10
2019-03-13T12:02:03.979Z,8.00
2019-03-13T12:04:50.818Z,8.00
2019-03-13T12:07:28.707Z,7.90
2019-03-13T12:10:17.313Z,7.90
2019-03-13T12:12:53.442Z,8.00
2019-03-13T12:15:28.720Z,7.90
2019-03-13T12:18:06.612Z,7.90
2019-03-13T12:20:50.503Z,7.80
2019-03-13T12:23:22.307Z,7.80
2019-03-13T12:26:06.156Z,7.80
2019-03-13T12:28:54.905Z,7.80
2019-03-13T12:31:29.214Z,7.80
2019-03-13T12:34:19.301Z,7.80
2019-03-13T12:36:57.866Z,7.70
2019-03-13T12:39:30.496Z,7.60
2019-03-13T12:42:05.839Z,7.70
2019-03-13T12:44:38.657Z,7.70
2019-03-13T12:47:26.227Z,7.70
2019-03-13T12:50:01.409Z,7.70
2019-03-13T12:52:49.948Z,7.60
2019-03-13T12:55:25.086Z,7.60
2019-03-13T12:58:12.268Z,7.70
2019-03-13T13:00:47.297Z,7.60
2019-03-13T13:03:19.108Z,7.70
2019-03-13T13:06:07.330Z,7.90
2019-03-13T13:08:51.342Z,7.90
2019-03-13T13:11:35.572Z,8.00
2019-03-13T13:14:19.774Z,8.10
2019-03-13T13:17:00.511Z,8.00
2019-03-13T13:19:30.735Z,8.10
2019-03-13T13:22:01.124Z,8.20
2019-03-13T13:24:31.392Z,8.20
2019-03-13T13:27:01.743Z,8.40
2019-03-13T13:29:53.977Z,8.50
2019-03-13T13:32:28.697Z,8.30
2019-03-13T13:34:59.785Z,8.10
2019-03-13T13:37:30.039Z,8.10
2019-03-13T13:40:00.303Z,8.10
2019-03-13T13:42:30.483Z,8.10
2019-03-13T13:45:02.166Z,8.10
2019-03-13T13:47:32.349Z,8.10
2019-03-13T13:50:02.511Z,8.10
2019-03-13T13:52:32.720Z,8.10
2019-03-13T13:55:03.078Z,8.10
2019-03-13T13:57:33.260Z,8.20
2019-03-13T14:00:04.932Z,8.10
2019-03-13T14:02:35.160Z,8.20
2019-03-13T14:05:05.961Z,8.00
2019-03-13T14:07:36.256Z,7.90
2019-03-13T14:10:09.074Z,7.80
2019-03-13T14:12:39.331Z,7.70
2019-03-13T14:15:12.752Z,7.60
2019-03-13T14:17:42.993Z,7.60
2019-03-13T14:20:14.849Z,7.40
2019-03-13T14:22:45.044Z,7.30
2019-03-13T14:25:15.416Z,7.20
2019-03-13T14:27:45.596Z,7.10
2019-03-13T14:30:18.953Z,7.10
2019-03-13T14:32:49.348Z,7.20
2019-03-13T14:35:19.653Z,7.20
2019-03-13T14:37:49.832Z,7.10
2019-03-13T14:40:21.036Z,7.10
2019-03-13T14:42:51.706Z,7.20
2019-03-13T14:45:21.904Z,7.10
2019-03-13T14:47:52.209Z,7.10
2019-03-13T14:50:23.102Z,7.10
2019-03-13T14:52:53.364Z,7.10
2019-03-13T14:55:23.732Z,7.00
2019-03-13T14:57:54.324Z,7.10
2019-03-13T15:00:25.553Z,7.10
2019-03-13T15:02:56.021Z,7.10
2019-03-13T15:05:26.272Z,7.10
2019-03-13T15:07:56.452Z,7.10
2019-03-13T15:10:26.622Z,7.10
2019-03-13T15:12:56.813Z,7.20
2019-03-13T15:15:28.495Z,7.20
2019-03-13T15:17:58.827Z,7.20
2019-03-13T15:20:29.719Z,7.20
2019-03-13T15:23:00.035Z,7.20
2019-03-13T15:25:30.296Z,7.20
2019-03-13T15:28:00.602Z,7.20
2019-03-13T15:30:34.175Z,7.20
2019-03-13T15:33:04.363Z,7.40
2019-03-13T15:35:34.533Z,7.40
2019-03-13T15:38:04.787Z,7.50
2019-03-13T15:40:35.021Z,7.50
2019-03-13T15:43:05.140Z,7.40
2019-03-13T15:45:35.786Z,7.40
2019-03-13T15:48:06.139Z,7.40
2019-03-13T15:50:36.506Z,7.40
2019-03-13T15:53:06.996Z,7.30
2019-03-13T15:55:37.318Z,7.30
2019-03-13T15:58:07.608Z,7.40
2019-03-13T16:00:37.773Z,7.30
2019-03-13T16:03:08.257Z,7.30
2019-03-13T16:05:38.632Z,7.30
2019-03-13T16:08:08.813Z,7.30
2019-03-13T16:10:39.071Z,7.40
2019-03-13T16:13:09.254Z,7.30
2019-03-13T16:15:40.908Z,7.30
2019-03-13T16:18:11.156Z,7.30
2019-03-13T16:20:41.611Z,7.30
2019-03-13T16:23:11.799Z,7.30
2019-03-13T16:25:42.037Z,7.30
2019-03-13T16:28:12.323Z,7.30
2019-03-13T16:30:47.001Z,7.20
2019-03-13T16:33:17.188Z,7.10
2019-03-13T16:35:47.567Z,7.00
2019-03-13T16:38:17.813Z,7.10
2019-03-13T16:40:48.091Z,7.10
2019-03-13T16:43:19.225Z,7.10
2019-03-13T16:45:49.402Z,7.10
2019-03-13T16:48:19.679Z,7.20
2019-03-13T16:50:50.549Z,7.10
2019-03-13T16:53:20.826Z,7.10
2019-03-13T16:55:51.193Z,7.20
2019-03-13T16:58:21.402Z,7.30
2019-03-13T17:00:51.867Z,7.20
2019-03-13T17:03:22.002Z,7.20
2019-03-13T17:05:52.313Z,7.10
2019-03-13T17:08:22.476Z,7.20
2019-03-13T17:10:52.745Z,7.10
2019-03-13T17:13:22.916Z,7.10
2019-03-13T17:15:53.358Z,7.10
2019-03-13T17:18:23.525Z,7.10
2019-03-13T17:20:53.713Z,7.10
2019-03-13T17:23:23.972Z,7.10
2019-03-13T17:25:54.161Z,7.00
2019-03-13T17:28:24.440Z,7.00
2019-03-13T17:30:57.409Z,7.00
2019-03-13T17:33:27.627Z,7.00
2019-03-13T17:35:57.860Z,7.00
2019-03-13T17:38:28.562Z,7.10
2019-03-13T17:40:59.198Z,7.10
2019-03-13T17:43:38.491Z,7.10
2019-03-13T17:46:01.383Z,7.10
2019-03-13T17:48:31.544Z,7.10
2019-03-13T17:51:01.727Z,7.10
2019-03-13T17:53:32.029Z,7.10
2019-03-13T17:56:02.308Z,7.10
2019-03-13T17:58:32.476Z,7.00
2019-03-13T18:01:02.691Z,7.00
2019-03-13T18:03:32.925Z,7.00
2019-03-13T18:06:03.276Z,7.00
2019-03-13T18:08:33.445Z,6.90
2019-03-13T18:11:04.563Z,6.90
2019-03-13T18:13:34.792Z,6.90
2019-03-13T18:16:05.354Z,6.90
2019-03-13T18:18:35.523Z,6.90
2019-03-13T18:21:05.803Z,6.90
2019-03-13T18:23:36.062Z,6.90
2019-03-13T18:26:06.258Z,6.90
2019-03-13T18:28:36.424Z,6.90
2019-03-13T18:31:06.612Z,6.90
2019-03-13T18:33:36.770Z,6.90
2019-03-13T18:36:07.059Z,6.90
2019-03-13T18:38:37.297Z,6.90
2019-03-13T18:41:09.272Z,6.80
2019-03-13T18:43:39.903Z,6.80
2019-03-13T18:46:10.096Z,6.70
2019-03-13T18:48:40.368Z,6.50
2019-03-13T18:51:13.391Z,6.50
2019-03-13T18:53:42.533Z,6.50
2019-03-13T18:56:14.115Z,6.40
2019-03-13T18:58:44.387Z,6.30
2019-03-13T19:01:14.736Z,6.30
2019-03-13T19:03:44.906Z,6.30
2019-03-13T19:06:15.582Z,6.30
2019-03-13T19:08:45.935Z,6.20
2019-03-13T19:11:16.380Z,6.20
2019-03-13T19:13:46.748Z,6.20
2019-03-13T19:16:17.239Z,6.20
2019-03-13T19:18:47.403Z,6.30
2019-03-13T19:21:17.627Z,6.30
2019-03-13T19:23:47.801Z,6.30
2019-03-13T19:26:18.057Z,6.30
2019-03-13T19:28:49.744Z,6.40
2019-03-13T19:31:19.906Z,6.40
2019-03-13T19:33:50.064Z,6.40
2019-03-13T19:36:20.260Z,6.40
2019-03-13T19:38:50.441Z,6.30
2019-03-13T19:41:20.659Z,6.40
2019-03-13T19:43:50.836Z,6.50
2019-03-13T19:46:21.307Z,6.40
2019-03-13T19:48:51.466Z,6.40
2019-03-13T19:51:21.981Z,6.40
2019-03-13T19:53:52.406Z,6.30
2019-03-13T19:56:22.552Z,6.20
2019-03-13T19:58:52.715Z,6.20
2019-03-13T20:01:23.051Z,6.10
2019-03-13T20:03:55.383Z,6.10
2019-03-13T20:06:25.292Z,6.00
2019-03-13T20:08:55.692Z,6.00
2019-03-13T20:11:26.276Z,6.00
2019-03-13T20:13:58.120Z,5.90
2019-03-13T20:16:28.418Z,5.90
2019-03-13T20:18:58.642Z,6.00
2019-03-13T20:21:31.208Z,6.00
2019-03-13T20:24:00.756Z,6.00
2019-03-13T20:26:31.155Z,5.90
2019-03-13T20:29:01.515Z,5.90
2019-03-13T20:31:31.835Z,5.90
2019-03-13T20:34:02.181Z,6.00
2019-03-13T20:36:32.522Z,6.00
2019-03-13T20:39:02.853Z,6.00
2019-03-13T20:41:33.099Z,6.00
2019-03-13T20:44:03.435Z,5.90
2019-03-13T20:46:33.848Z,5.90
2019-03-13T20:49:03.975Z,6.00
2019-03-13T20:51:34.582Z,6.00
2019-03-13T20:54:04.821Z,6.10
2019-03-13T20:56:35.425Z,5.90
2019-03-13T20:59:05.641Z,5.90
2019-03-13T21:01:36.135Z,5.80
2019-03-13T21:04:07.737Z,5.70
2019-03-13T21:06:38.256Z,5.70
2019-03-13T21:09:08.852Z,5.70
2019-03-13T21:11:39.171Z,5.70
2019-03-13T21:14:09.487Z,5.70
2019-03-13T21:16:39.661Z,5.70
2019-03-13T21:19:09.917Z,5.70
2019-03-13T21:21:41.280Z,5.80
2019-03-13T21:24:11.577Z,5.80
2019-03-13T21:26:43.403Z,5.80
2019-03-13T21:29:14.585Z,5.70
2019-03-13T21:31:46.096Z,5.70
2019-03-13T21:34:16.536Z,5.70
2019-03-13T21:36:48.406Z,5.70
2019-03-13T21:39:18.807Z,5.70
2019-03-13T21:41:50.121Z,5.70
2019-03-13T21:44:20.452Z,5.60
2019-03-13T21:46:51.866Z,5.60
2019-03-13T21:49:25.539Z,5.50
2019-03-13T21:51:55.858Z,5.40
2019-03-13T21:54:26.135Z,5.40
2019-03-13T21:56:56.500Z,5.30
2019-03-13T21:59:28.374Z,5.20
2019-03-13T22:01:58.608Z,5.20
2019-03-13T22:04:29.048Z,5.20
2019-03-13T22:06:59.450Z,5.10
2019-03-13T22:09:29.823Z,5.20
2019-03-13T22:12:00.039Z,5.10
2019-03-13T22:14:30.441Z,5.00
2019-03-13T22:17:00.527Z,4.90
2019-03-13T22:19:31.015Z,4.80
2019-03-13T22:22:01.179Z,4.90
2019-03-13T22:24:31.507Z,4.90
2019-03-13T22:27:01.682Z,4.80
2019-03-13T22:29:31.869Z,4.80
2019-03-13T22:32:02.053Z,4.80
2019-03-13T22:34:32.395Z,4.80
2019-03-13T22:37:02.767Z,4.80
2019-03-13T22:39:33.068Z,4.80
2019-03-13T22:42:03.339Z,4.70
2019-03-13T22:44:35.357Z,4.60
2019-03-13T22:47:05.615Z,4.60
2019-03-13T22:49:35.812Z,4.50
2019-03-13T22:52:06.085Z,4.60
2019-03-13T22:54:36.368Z,4.60
2019-03-13T22:57:06.632Z,4.60
2019-03-13T22:59:36.848Z,4.60
2019-03-13T23:02:08.954Z,4.60
2019-03-13T23:04:39.208Z,4.60
2019-03-13T23:07:09.443Z,4.60
2019-03-13T23:09:39.737Z,4.70
2019-03-13T23:12:10.005Z,4.60
2019-03-13T23:14:40.296Z,4.70
2019-03-13T23:17:10.559Z,4.70
2019-03-13T23:19:42.244Z,4.60
2019-03-13T23:22:12.611Z,4.70
2019-03-13T23:24:42.783Z,4.70
2019-03-13T23:27:13.051Z,4.80
2019-03-13T23:29:43.372Z,4.80
2019-03-13T23:32:13.642Z,4.80
2019-03-13T23:34:43.828Z,4.90
2019-03-13T23:37:14.055Z,4.90
2019-03-13T23:39:44.207Z,4.90
2019-03-13T23:42:14.647Z,4.90
2019-03-13T23:44:44.920Z,4.90
2019-03-13T23:47:15.316Z,4.90
2019-03-13T23:49:45.499Z,4.90
2019-03-13T23:52:15.693Z,4.90
2019-03-13T23:54:45.868Z,4.90
2019-03-13T23:57:16.212Z,4.90
2019-03-13T23:59:46.391Z,4.90
